Time Latitude Longitude Accuracy (66% radius in meters) Altitude (meters) Speed (km/hour) Bearing (degrees) Battery (%) GPS flag
08:36:21 57.204390 60.120550 48 318.18457383108 0 234.89540100098 70 0 delete
08:36:09 57.204390 60.120550 48 318.18457383108 0 234.89540100098 70 0 delete
08:35:58 57.204390 60.120550 48 318.18457383108 0 234.89540100098 70 0 delete
08:35:47 57.204390 60.120550 48 318.18457383108 0 234.89540100098 70 0 delete
08:35:35 57.204390 60.120550 48 318.18457383108 0 234.89540100098 70 0 delete
08:35:24 57.204390 60.120550 48 318.18457383108 0 234.89540100098 70 0 delete
08:35:12 57.204390 60.120550 48 318.18457383108 0 234.89540100098 70 0 delete
08:35:01 57.204390 60.120550 48 318.18457383108 0 234.89540100098 70 0 delete
08:34:50 57.204390 60.120550 48 318.18457383108 0 234.89540100098 70 0 delete
08:34:39 57.204390 60.120550 48 318.18457383108 0 234.89540100098 70 0 delete
08:34:27 57.204390 60.120550 48 318.18457383108 0 234.89540100098 70 0 delete
08:34:16 57.204390 60.120550 48 318.18457383108 0 234.89540100098 70 0 delete
08:34:05 57.204390 60.120550 48 318.18457383108 0 234.89540100098 70 0 delete
08:33:54 57.204390 60.120550 48 318.18457383108 0 234.89540100098 70 0 delete
08:33:36 57.204390 60.120550 48 318.18457383108 0 234.89540100098 70 0 delete
08:33:24 57.204390 60.120550 48 318.18457383108 0 234.89540100098 70 0 delete
08:33:14 57.204390 60.120550 48 318.18457383108 0 234.89540100098 70 0 delete
08:33:02 57.204390 60.120550 48 318.18457383108 0 234.89540100098 70 0 delete
08:32:51 57.204390 60.120550 48 318.18457383108 0 234.89540100098 70 0 delete
08:32:39 57.204390 60.120550 48 318.18457383108 0 234.89540100098 70 0 delete
08:32:28 57.204390 60.120550 48 318.18457383108 0 234.89540100098 70 0 delete
08:31:54 57.204390 60.120550 48 318.18457383108 0 234.89540100098 70 0 delete
08:30:46 57.204390 60.120550 48 318.18457383108 0 234.89540100098 70 0 delete
08:30:27 57.204390 60.120550 48 318.18457383108 0 234.89540100098 70 0 delete
08:30:14 57.204390 60.120550 48 318.18457383108 0 234.89540100098 70 0 delete
08:30:02 57.204390 60.120550 48 318.18457383108 0 234.89540100098 70 0 delete
08:29:49 57.204390 60.120550 48 318.18457383108 0 234.89540100098 70 0 delete
08:29:26 57.204390 60.120550 48 318.18457383108 0 234.89540100098 70 0 delete
08:29:13 57.204390 60.120550 48 318.18457383108 0 234.89540100098 70 0 delete
08:28:55 57.204390 60.120550 48 318.18457383108 0 234.89540100098 70 0 delete
08:28:38 57.204390 60.120550 48 318.18457383108 0 234.89540100098 70 0 delete
08:28:17 57.204390 60.120550 48 318.18457383108 0 234.89540100098 70 0 delete
08:28:04 57.204390 60.120550 48 318.18457383108 0 234.89540100098 70 0 delete
08:27:53 57.204390 60.120550 48 318.18457383108 0 234.89540100098 70 0 delete
08:27:42 57.204390 60.120550 48 318.18457383108 0 234.89540100098 70 0 delete
08:27:31 57.204390 60.120550 48 318.18457383108 0 234.89540100098 70 0 delete
08:27:20 57.204390 60.120550 48 318.18457383108 0 234.89540100098 70 0 delete
08:27:08 57.204390 60.120550 48 318.18457383108 0 234.89540100098 70 0 delete
07:26:09 57.204390 60.120550 48 318.18457383108 0 234.89540100098 70 1 delete
07:25:52 57.204343 60.120714 16 318.08707597523 0 234.89540100098 70 1 delete
07:25:49 57.204338 60.120759 16 318.11393164779 0 234.89540100098 70 1 delete
07:25:40 57.204353 60.120887 16 319.06840177723 0 269.21032714844 70 1 delete
07:25:37 57.204356 60.120949 16 319.54658080298 0 243.16448974609 70 1 delete
07:25:25 57.204394 60.121032 24 324.4529221209 0 348.103515625 70 1 delete
07:25:21 57.204374 60.121068 24 325.37071615754 1.4370642900467 352.78817749023 70 1 delete
07:24:46 57.204302 60.121070 16 326.65931031873 0 197.92254638672 73 1 delete
07:24:37 57.204276 60.121056 16 326.81182966452 0 197.92254638672 73 1 delete
07:24:34 57.204270 60.121050 16 326.85788037715 0 197.92254638672 73 1 delete
07:24:18 57.204256 60.121036 12 326.97060574035 0 197.92254638672 73 1 delete
07:24:05 57.204239 60.121006 16 325.67225605887 0 171.89500427246 73 1 delete